createdAt,value
2022-11-10T00:00:20.267Z,27.23
2022-11-10T00:00:42.467Z,27.70
2022-11-10T00:01:09.117Z,27.50
2022-11-10T00:01:30.925Z,27.13
2022-11-10T00:01:52.872Z,26.80
2022-11-10T00:02:14.911Z,28.50
2022-11-10T00:02:36.825Z,27.55
2022-11-10T00:03:03.611Z,27.55
2022-11-10T00:03:28.340Z,27.80
2022-11-10T00:03:50.455Z,27.40
2022-11-10T00:04:12.728Z,28.00
2022-11-10T00:04:34.536Z,27.17
2022-11-10T00:04:56.420Z,27.38
2022-11-10T00:05:18.568Z,28.30
2022-11-10T00:05:40.759Z,28.55
2022-11-10T00:06:04.391Z,27.10
2022-11-10T00:06:26.177Z,27.33
2022-11-10T00:06:48.496Z,27.83
2022-11-10T00:07:10.303Z,27.90
2022-11-10T00:07:32.296Z,28.25
2022-11-10T00:07:54.155Z,27.60
2022-11-10T00:08:16.194Z,27.73
2022-11-10T00:08:38.022Z,27.75
2022-11-10T00:09:00.021Z,27.60
2022-11-10T00:09:21.836Z,28.08
2022-11-10T00:09:43.587Z,27.77
2022-11-10T00:10:06.434Z,27.17
2022-11-10T00:10:28.566Z,27.52
2022-11-10T00:11:01.318Z,26.75
2022-11-10T00:11:23.517Z,28.38
2022-11-10T00:11:46.186Z,29.27
2022-11-10T00:12:08.301Z,28.42
2022-11-10T00:12:31.389Z,27.55
2022-11-10T00:12:53.720Z,28.30
2022-11-10T00:13:16.657Z,28.08
2022-11-10T00:13:59.131Z,28.15
2022-11-10T00:14:39.596Z,28.48
2022-11-10T00:15:20.273Z,28.08
2022-11-10T00:16:00.624Z,28.30
2022-11-10T00:16:41.452Z,28.48
2022-11-10T00:17:06.118Z,27.83
2022-11-10T00:17:27.948Z,27.75
2022-11-10T00:17:50.144Z,28.50
2022-11-10T00:18:12.437Z,28.67
2022-11-10T00:18:34.202Z,27.77
2022-11-10T00:18:55.987Z,27.65
2022-11-10T00:19:17.732Z,27.80
2022-11-10T00:19:39.524Z,28.27
2022-11-10T00:20:01.672Z,28.50
2022-11-10T00:20:23.821Z,29.55
2022-11-10T00:20:45.954Z,29.80
2022-11-10T00:21:09.443Z,28.90
2022-11-10T00:21:31.141Z,30.65
2022-11-10T00:21:52.956Z,32.58
2022-11-10T00:22:14.782Z,35.33
2022-11-10T00:22:37.906Z,38.55
2022-11-10T00:23:00.039Z,35.05
2022-11-10T00:23:22.015Z,34.33
2022-11-10T00:23:44.424Z,31.83
2022-11-10T00:24:06.377Z,33.60
2022-11-10T00:24:29.335Z,40.63
2022-11-10T00:24:51.494Z,40.30
2022-11-10T00:25:13.328Z,30.35
2022-11-10T00:25:35.411Z,29.90
2022-11-10T00:25:57.165Z,30.48
2022-11-10T00:26:20.267Z,39.05
2022-11-10T00:26:42.457Z,43.80
2022-11-10T00:27:04.364Z,40.60
2022-11-10T00:27:26.118Z,36.97
2022-11-10T00:27:49.198Z,38.22
2022-11-10T00:28:10.923Z,36.05
2022-11-10T00:28:32.827Z,43.95
2022-11-10T00:28:55.593Z,45.55
2022-11-10T00:29:17.840Z,41.90
2022-11-10T00:29:39.590Z,41.17
2022-11-10T00:30:01.725Z,37.22
2022-11-10T00:30:23.861Z,33.50
2022-11-10T00:30:46.998Z,33.75
2022-11-10T00:31:09.292Z,33.03
2022-11-10T00:31:31.431Z,32.47
2022-11-10T00:31:53.217Z,30.75
2022-11-10T00:32:14.962Z,29.30
2022-11-10T00:32:36.683Z,29.52
2022-11-10T00:32:58.939Z,28.95
2022-11-10T00:33:20.951Z,27.77
2022-11-10T00:33:44.343Z,29.02
2022-11-10T00:34:06.964Z,29.00
2022-11-10T00:34:28.673Z,29.48
2022-11-10T00:34:50.804Z,29.65
2022-11-10T00:35:12.661Z,30.15
2022-11-10T00:35:34.405Z,29.98
2022-11-10T00:36:01.454Z,29.67
2022-11-10T00:36:23.743Z,29.25
2022-11-10T00:36:45.533Z,28.60
2022-11-10T00:37:07.252Z,29.15
2022-11-10T00:37:29.427Z,29.08
2022-11-10T00:37:51.852Z,27.80
2022-11-10T00:38:13.616Z,28.48
2022-11-10T00:38:35.358Z,29.30
2022-11-10T00:38:57.495Z,29.02
2022-11-10T00:39:19.313Z,28.63
2022-11-10T00:39:41.482Z,28.95
2022-11-10T00:40:03.766Z,28.60
2022-11-10T00:40:25.559Z,29.27
2022-11-10T00:40:47.888Z,29.17
2022-11-10T00:41:09.797Z,29.70
2022-11-10T00:41:31.735Z,28.85
2022-11-10T00:41:53.529Z,29.27
2022-11-10T00:42:15.496Z,28.90
2022-11-10T00:42:37.234Z,29.02
2022-11-10T00:42:58.947Z,28.77
2022-11-10T00:43:26.204Z,28.15
2022-11-10T00:43:48.980Z,28.88
2022-11-10T00:44:11.139Z,29.20
2022-11-10T00:44:33.248Z,29.60
2022-11-10T00:44:55.414Z,28.65
2022-11-10T00:45:17.598Z,28.95
2022-11-10T00:45:42.927Z,29.48
2022-11-10T00:46:04.966Z,29.70
2022-11-10T00:46:26.757Z,27.90
2022-11-10T00:46:48.538Z,28.67
2022-11-10T00:47:10.712Z,28.00
2022-11-10T00:47:32.460Z,29.42
2022-11-10T00:47:54.627Z,29.60
2022-11-10T00:48:16.927Z,28.95
2022-11-10T00:48:38.820Z,29.10
2022-11-10T00:49:00.576Z,28.95
2022-11-10T00:49:22.714Z,29.30
2022-11-10T00:49:44.466Z,28.35
2022-11-10T00:50:06.903Z,28.38
2022-11-10T00:50:29.021Z,29.40
2022-11-10T00:50:51.227Z,29.50
2022-11-10T00:51:20.449Z,29.77
2022-11-10T00:51:42.234Z,29.15
2022-11-10T00:52:04.451Z,29.20
2022-11-10T00:52:26.248Z,28.70
2022-11-10T00:52:48.070Z,28.60
2022-11-10T00:53:09.814Z,28.25
2022-11-10T00:53:31.946Z,28.20
2022-11-10T00:53:54.533Z,27.88
2022-11-10T00:54:16.333Z,28.80
2022-11-10T00:54:38.131Z,29.45
2022-11-10T00:54:59.979Z,29.85
2022-11-10T00:55:21.745Z,28.92
2022-11-10T00:55:43.844Z,27.77
2022-11-10T00:56:05.890Z,27.92
2022-11-10T00:56:28.311Z,28.67
2022-11-10T00:56:50.443Z,29.13
2022-11-10T00:57:12.193Z,28.58
2022-11-10T00:57:33.971Z,29.70
2022-11-10T00:57:55.724Z,29.60
2022-11-10T00:58:17.767Z,29.13
2022-11-10T00:58:39.520Z,30.02
2022-11-10T00:59:01.681Z,30.13
2022-11-10T00:59:23.383Z,29.13
2022-11-10T00:59:45.224Z,28.70
2022-11-10T01:00:07.781Z,28.75
2022-11-10T01:00:29.512Z,29.08
2022-11-10T01:00:51.291Z,29.73
2022-11-10T01:01:14.144Z,29.30
2022-11-10T01:01:36.864Z,29.05
2022-11-10T01:01:58.621Z,30.90
2022-11-10T01:02:20.388Z,31.42
2022-11-10T01:02:42.508Z,31.25
2022-11-10T01:03:04.669Z,29.42
2022-11-10T01:03:26.404Z,28.80
2022-11-10T01:03:48.316Z,29.85
2022-11-10T01:04:10.063Z,30.55
2022-11-10T01:04:32.228Z,29.38
2022-11-10T01:04:53.958Z,28.13
2022-11-10T01:05:15.760Z,29.90
2022-11-10T01:05:38.574Z,29.15
2022-11-10T01:06:05.362Z,29.83
2022-11-10T01:06:27.191Z,30.52
2022-11-10T01:06:49.140Z,31.70
2022-11-10T01:07:10.968Z,31.63
2022-11-10T01:07:32.886Z,31.08
2022-11-10T01:07:54.670Z,30.90
2022-11-10T01:08:16.424Z,30.15
2022-11-10T01:08:39.093Z,30.58
2022-11-10T01:09:00.899Z,30.80
2022-11-10T01:09:23.009Z,30.33
2022-11-10T01:09:45.136Z,30.85
2022-11-10T01:10:07.362Z,31.70
2022-11-10T01:10:29.178Z,32.83
2022-11-10T01:10:50.975Z,33.20
2022-11-10T01:11:30.582Z,32.08
2022-11-10T01:11:52.700Z,33.38
2022-11-10T01:12:14.641Z,32.55
2022-11-10T01:12:36.413Z,31.38
2022-11-10T01:12:58.217Z,32.63
2022-11-10T01:13:20.165Z,30.95
2022-11-10T01:13:44.395Z,31.38
2022-11-10T01:14:06.200Z,32.83
2022-11-10T01:14:27.929Z,33.50
2022-11-10T01:14:49.689Z,37.53
2022-11-10T01:15:11.494Z,36.47
2022-11-10T01:15:33.342Z,33.33
2022-11-10T01:15:55.096Z,35.90
2022-11-10T01:16:19.249Z,36.60
2022-11-10T01:16:41.391Z,35.05
2022-11-10T01:17:03.142Z,37.00
2022-11-10T01:17:24.914Z,33.63
2022-11-10T01:17:47.218Z,32.42
2022-11-10T01:18:09.326Z,32.33
2022-11-10T01:18:31.150Z,30.17
2022-11-10T01:18:54.662Z,30.13
2022-11-10T01:19:16.843Z,32.92
2022-11-10T01:19:38.583Z,32.25
2022-11-10T01:20:00.713Z,31.23
2022-11-10T01:20:22.921Z,32.13
2022-11-10T01:20:44.709Z,32.97
2022-11-10T01:21:07.141Z,32.20
2022-11-10T01:21:29.910Z,31.88
2022-11-10T01:21:52.313Z,31.67
2022-11-10T01:22:14.600Z,32.05
2022-11-10T01:22:36.425Z,30.75
2022-11-10T01:22:58.224Z,31.25
2022-11-10T01:23:20.484Z,31.65
2022-11-10T01:23:42.751Z,31.48
2022-11-10T01:24:04.871Z,31.85
2022-11-10T01:24:27.025Z,30.45
2022-11-10T01:24:48.800Z,30.38
2022-11-10T01:25:11.781Z,31.25
2022-11-10T01:25:33.900Z,30.98
2022-11-10T01:26:04.529Z,29.55
2022-11-10T01:26:26.590Z,30.63
2022-11-10T01:26:48.927Z,30.63
2022-11-10T01:27:11.196Z,30.50
2022-11-10T01:27:33.306Z,30.20
2022-11-10T01:27:55.481Z,30.42
2022-11-10T01:28:17.230Z,29.85
2022-11-10T01:28:39.023Z,30.13
2022-11-10T01:29:01.242Z,29.10
2022-11-10T01:29:23.108Z,30.38
2022-11-10T01:29:45.757Z,30.73
2022-11-10T01:30:08.219Z,30.35
2022-11-10T01:30:30.052Z,30.45
2022-11-10T01:31:02.257Z,29.50
2022-11-10T01:31:24.496Z,29.95
2022-11-10T01:31:46.365Z,29.33
2022-11-10T01:32:08.657Z,29.58
2022-11-10T01:32:30.801Z,30.35
2022-11-10T01:32:52.937Z,29.88
2022-11-10T01:33:14.846Z,29.98
2022-11-10T01:33:36.899Z,29.83
2022-11-10T01:34:00.151Z,28.95
2022-11-10T01:34:28.683Z,28.00
2022-11-10T01:34:50.451Z,29.38
2022-11-10T01:35:12.358Z,29.90
2022-11-10T01:35:34.982Z,29.17
2022-11-10T01:35:57.000Z,28.98
2022-11-10T01:36:19.193Z,29.30
2022-11-10T01:36:41.150Z,29.08
2022-11-10T01:37:04.298Z,29.23
2022-11-10T01:37:26.306Z,29.67
2022-11-10T01:37:48.032Z,29.60
2022-11-10T01:38:09.766Z,29.92
2022-11-10T01:38:35.007Z,29.77
2022-11-10T01:38:56.803Z,29.45
2022-11-10T01:39:18.997Z,29.42
2022-11-10T01:39:41.205Z,30.13
2022-11-10T01:40:04.653Z,28.50
2022-11-10T01:40:27.376Z,29.63
2022-11-10T01:40:49.438Z,29.40
2022-11-10T01:41:13.316Z,28.73
2022-11-10T01:41:35.410Z,29.00
2022-11-10T01:41:57.178Z,29.00
2022-11-10T01:42:26.962Z,28.73
2022-11-10T01:42:54.478Z,28.15
2022-11-10T01:43:16.509Z,28.95
2022-11-10T01:43:38.568Z,28.77
2022-11-10T01:44:19.081Z,29.77
2022-11-10T01:44:42.145Z,29.55
2022-11-10T01:45:22.253Z,29.40
2022-11-10T01:45:51.306Z,29.05
2022-11-10T01:46:14.034Z,28.80
2022-11-10T01:46:35.759Z,29.60
2022-11-10T01:46:57.580Z,29.90
2022-11-10T01:47:19.426Z,28.67
2022-11-10T01:47:41.309Z,29.30
2022-11-10T01:48:06.880Z,29.63
2022-11-10T01:48:53.941Z,29.65
2022-11-10T01:49:22.033Z,29.05
2022-11-10T01:49:44.197Z,29.30
2022-11-10T01:50:06.809Z,29.58
2022-11-10T01:50:30.988Z,29.10
2022-11-10T01:50:53.290Z,28.55
2022-11-10T01:51:26.304Z,29.23
2022-11-10T01:51:54.063Z,31.30
2022-11-10T01:52:15.869Z,30.20
2022-11-10T01:52:37.674Z,29.70
2022-11-10T01:53:01.295Z,29.77
2022-11-10T01:53:27.395Z,29.45
2022-11-10T01:53:58.273Z,29.73
2022-11-10T01:54:29.370Z,29.15
2022-11-10T01:54:51.367Z,29.27
2022-11-10T01:55:13.859Z,28.95
2022-11-10T01:55:38.139Z,29.55
2022-11-10T01:56:00.292Z,29.33
2022-11-10T01:56:23.492Z,29.45
2022-11-10T01:56:51.103Z,29.75
2022-11-10T01:57:14.583Z,29.73
2022-11-10T01:57:37.416Z,29.27
2022-11-10T01:57:59.297Z,29.95
2022-11-10T01:58:24.583Z,29.95
2022-11-10T01:58:56.363Z,29.20
2022-11-10T01:59:24.536Z,30.38
2022-11-10T01:59:48.043Z,29.10
2022-11-10T02:00:10.756Z,29.75
2022-11-10T02:00:32.941Z,29.65
2022-11-10T02:00:55.321Z,29.65
2022-11-10T02:01:17.564Z,28.95
2022-11-10T02:01:39.687Z,28.88
2022-11-10T02:02:10.443Z,29.92
2022-11-10T02:02:59.350Z,29.83
2022-11-10T02:03:43.270Z,29.50
2022-11-10T02:04:10.289Z,31.40
2022-11-10T02:04:32.516Z,30.52
2022-11-10T02:04:54.860Z,29.65
2022-11-10T02:05:16.683Z,28.88
2022-11-10T02:05:39.004Z,29.55
2022-11-10T02:06:01.430Z,29.98
2022-11-10T02:06:26.972Z,29.92
2022-11-10T02:06:50.177Z,30.67
2022-11-10T02:07:12.274Z,29.58
2022-11-10T02:07:35.238Z,28.70
2022-11-10T02:07:57.540Z,29.63
2022-11-10T02:08:19.572Z,31.00
2022-11-10T02:08:42.786Z,30.75
2022-11-10T02:09:06.035Z,30.52
2022-11-10T02:09:28.165Z,31.58
2022-11-10T02:09:50.361Z,31.05
2022-11-10T02:10:17.876Z,29.65
2022-11-10T02:10:39.697Z,29.80
2022-11-10T02:11:01.897Z,29.73
2022-11-10T02:11:24.144Z,31.02
2022-11-10T02:11:46.454Z,29.73
2022-11-10T02:12:08.363Z,28.77
2022-11-10T02:12:37.608Z,29.48
2022-11-10T02:12:59.458Z,30.80
2022-11-10T02:13:21.511Z,30.23
2022-11-10T02:13:43.670Z,30.35
2022-11-10T02:14:05.995Z,29.60
2022-11-10T02:14:27.858Z,29.05
2022-11-10T02:14:49.631Z,29.05
2022-11-10T02:15:14.482Z,29.58
2022-11-10T02:15:36.657Z,29.23
2022-11-10T02:15:58.722Z,29.23
2022-11-10T02:16:22.196Z,29.50
2022-11-10T02:16:44.042Z,29.25
2022-11-10T02:17:06.041Z,29.55
2022-11-10T02:17:28.174Z,30.17
2022-11-10T02:17:50.321Z,30.60
2022-11-10T02:18:12.265Z,30.52
2022-11-10T02:18:34.367Z,31.27
2022-11-10T02:18:56.496Z,29.98
2022-11-10T02:19:25.346Z,30.23
2022-11-10T02:19:47.486Z,30.05
2022-11-10T02:20:10.724Z,31.25
2022-11-10T02:20:32.470Z,31.08
2022-11-10T02:20:54.704Z,31.15
2022-11-10T02:21:20.796Z,30.20
2022-11-10T02:21:42.604Z,30.55
2022-11-10T02:22:04.349Z,30.65
2022-11-10T02:22:26.212Z,30.35
2022-11-10T02:22:48.234Z,29.70
2022-11-10T02:23:14.071Z,30.60
2022-11-10T02:23:35.888Z,29.52
2022-11-10T02:23:57.609Z,30.27
2022-11-10T02:24:19.437Z,30.52
2022-11-10T02:24:41.143Z,29.52
2022-11-10T02:25:03.483Z,29.30
2022-11-10T02:25:31.318Z,30.65
2022-11-10T02:25:53.067Z,30.40
2022-11-10T02:26:19.155Z,30.13
2022-11-10T02:26:59.007Z,29.90
2022-11-10T02:27:20.899Z,31.27
2022-11-10T02:27:42.739Z,30.67
2022-11-10T02:28:04.927Z,29.05
2022-11-10T02:28:27.312Z,30.25
2022-11-10T02:28:49.587Z,29.63
2022-11-10T02:29:11.737Z,29.83
2022-11-10T02:29:34.127Z,31.23
2022-11-10T02:29:55.890Z,31.23
2022-11-10T02:30:18.090Z,30.85
2022-11-10T02:30:40.209Z,31.17
2022-11-10T02:31:02.483Z,29.83
2022-11-10T02:31:24.632Z,31.00
2022-11-10T02:31:46.657Z,31.90
2022-11-10T02:32:08.386Z,31.67
2022-11-10T02:32:30.172Z,31.20
2022-11-10T02:32:51.945Z,31.38
2022-11-10T02:33:13.660Z,32.33
2022-11-10T02:33:36.307Z,31.83
2022-11-10T02:33:58.014Z,31.10
2022-11-10T02:34:20.203Z,32.75
2022-11-10T02:34:42.959Z,31.48
2022-11-10T02:35:05.081Z,30.98
2022-11-10T02:35:26.818Z,30.20
2022-11-10T02:35:48.585Z,31.20
2022-11-10T02:36:10.765Z,30.98
2022-11-10T02:36:32.796Z,30.60
2022-11-10T02:36:54.554Z,31.15
2022-11-10T02:37:16.379Z,31.33
2022-11-10T02:37:38.160Z,30.08
2022-11-10T02:37:59.909Z,31.27
2022-11-10T02:38:21.736Z,31.95
2022-11-10T02:38:43.871Z,30.75
2022-11-10T02:39:06.004Z,30.88
2022-11-10T02:39:27.754Z,32.25
2022-11-10T02:39:49.867Z,32.22
2022-11-10T02:40:12.246Z,31.08
2022-11-10T02:40:33.955Z,31.55
2022-11-10T02:40:55.752Z,30.73
2022-11-10T02:41:17.929Z,32.33
2022-11-10T02:41:39.675Z,32.85
2022-11-10T02:42:01.626Z,31.55
2022-11-10T02:42:23.761Z,31.05
2022-11-10T02:42:45.520Z,30.70
2022-11-10T02:43:12.017Z,31.25
2022-11-10T02:43:34.321Z,30.23
2022-11-10T02:43:57.672Z,30.23
2022-11-10T02:44:19.523Z,31.08
2022-11-10T02:44:42.353Z,31.70
2022-11-10T02:45:04.519Z,31.38
2022-11-10T02:45:26.246Z,31.23
2022-11-10T02:45:48.002Z,30.88
2022-11-10T02:46:09.718Z,30.63
2022-11-10T02:46:31.844Z,30.98
2022-11-10T02:46:53.663Z,30.77
2022-11-10T02:47:15.450Z,31.20
2022-11-10T02:47:37.915Z,30.90
2022-11-10T02:47:59.882Z,30.35
2022-11-10T02:48:21.643Z,31.85
2022-11-10T02:48:43.799Z,31.17
2022-11-10T02:49:05.551Z,32.28
2022-11-10T02:49:27.345Z,31.13
2022-11-10T02:49:49.131Z,32.30
2022-11-10T02:50:10.963Z,31.95
2022-11-10T02:50:32.682Z,30.95
2022-11-10T02:50:54.476Z,30.98
2022-11-10T02:51:16.294Z,31.83
2022-11-10T02:51:38.198Z,32.05
2022-11-10T02:51:59.952Z,31.80
2022-11-10T02:52:21.716Z,32.88
2022-11-10T02:52:43.835Z,33.58
2022-11-10T02:53:06.308Z,32.50
2022-11-10T02:53:28.028Z,31.80
2022-11-10T02:53:50.213Z,32.25
2022-11-10T02:54:12.522Z,32.78
2022-11-10T02:54:34.680Z,32.67
2022-11-10T02:54:56.404Z,32.28
2022-11-10T02:55:18.200Z,32.92
2022-11-10T02:55:39.982Z,32.88
2022-11-10T02:56:02.155Z,32.10
2022-11-10T02:56:23.855Z,32.67
2022-11-10T02:56:46.020Z,32.13
2022-11-10T02:57:08.577Z,32.10
2022-11-10T02:57:30.725Z,32.80
2022-11-10T02:57:52.524Z,32.70
2022-11-10T02:58:14.344Z,32.47
2022-11-10T02:58:36.054Z,31.70
2022-11-10T02:58:58.145Z,31.50
2022-11-10T02:59:19.878Z,32.10
2022-11-10T02:59:41.644Z,31.77
2022-11-10T03:00:04.269Z,32.08
2022-11-10T03:00:26.739Z,31.90
2022-11-10T03:00:48.890Z,32.40
2022-11-10T03:01:10.791Z,32.90
2022-11-10T03:01:32.611Z,32.22
2022-11-10T03:01:54.411Z,32.80
2022-11-10T03:02:16.358Z,32.05
2022-11-10T03:02:38.425Z,32.33
2022-11-10T03:03:02.140Z,32.63
2022-11-10T03:03:24.376Z,31.70
2022-11-10T03:03:46.317Z,31.02
2022-11-10T03:04:08.412Z,31.23
2022-11-10T03:04:30.132Z,30.63
2022-11-10T03:04:51.869Z,31.45
2022-11-10T03:05:13.673Z,33.53
2022-11-10T03:05:36.071Z,32.90
2022-11-10T03:05:58.181Z,31.73
2022-11-10T03:06:20.350Z,31.38
2022-11-10T03:06:42.587Z,31.67
2022-11-10T03:07:04.393Z,32.33
2022-11-10T03:07:26.587Z,33.33
2022-11-10T03:07:59.503Z,31.65
2022-11-10T03:08:21.215Z,32.53
2022-11-10T03:08:42.998Z,32.88
2022-11-10T03:09:05.364Z,32.40
2022-11-10T03:09:27.498Z,31.30
2022-11-10T03:09:49.253Z,32.33
2022-11-10T03:10:11.053Z,32.03
2022-11-10T03:10:33.008Z,31.75
2022-11-10T03:10:56.151Z,32.63
2022-11-10T03:11:18.342Z,32.00
2022-11-10T03:11:40.544Z,30.70
2022-11-10T03:12:02.254Z,31.10
2022-11-10T03:12:23.954Z,31.33
2022-11-10T03:12:45.735Z,30.45
2022-11-10T03:13:07.496Z,31.88
2022-11-10T03:13:51.319Z,31.83
2022-11-10T03:14:12.763Z,31.88
2022-11-10T03:14:34.593Z,31.75
2022-11-10T03:14:56.695Z,31.63
2022-11-10T03:15:18.456Z,30.30
2022-11-10T03:15:40.175Z,31.08
2022-11-10T03:16:01.918Z,30.88
2022-11-10T03:16:23.671Z,30.42
2022-11-10T03:16:45.386Z,31.23
2022-11-10T03:17:07.099Z,32.78
2022-11-10T03:17:28.885Z,31.98
2022-11-10T03:17:50.878Z,31.58
2022-11-10T03:18:12.646Z,32.08
2022-11-10T03:18:34.604Z,31.80
2022-11-10T03:18:56.361Z,32.20
2022-11-10T03:19:18.472Z,32.55
2022-11-10T03:19:40.211Z,31.88
2022-11-10T03:20:02.038Z,31.20
2022-11-10T03:20:23.838Z,31.80
2022-11-10T03:20:47.955Z,31.02
2022-11-10T03:21:10.134Z,29.88
2022-11-10T03:21:31.866Z,31.38
2022-11-10T03:21:53.631Z,31.60
2022-11-10T03:22:15.598Z,31.40
2022-11-10T03:22:37.435Z,31.20
2022-11-10T03:23:04.297Z,31.48
2022-11-10T03:23:26.181Z,31.00
2022-11-10T03:23:47.980Z,31.13
2022-11-10T03:24:09.896Z,31.63
2022-11-10T03:24:31.631Z,32.08
2022-11-10T03:24:53.391Z,30.80
2022-11-10T03:25:15.336Z,31.00
2022-11-10T03:25:38.479Z,30.60
2022-11-10T03:26:00.249Z,31.25
2022-11-10T03:26:22.541Z,29.92
2022-11-10T03:26:44.275Z,30.50
2022-11-10T03:27:06.076Z,30.92
2022-11-10T03:27:28.223Z,31.80
2022-11-10T03:27:50.383Z,31.35
2022-11-10T03:28:12.780Z,31.73
2022-11-10T03:28:35.039Z,30.80
2022-11-10T03:28:56.846Z,30.13
2022-11-10T03:29:18.614Z,30.17
2022-11-10T03:29:40.371Z,30.38
2022-11-10T03:30:02.424Z,29.70
2022-11-10T03:30:24.244Z,29.48
2022-11-10T03:30:46.000Z,29.02
2022-11-10T03:31:07.781Z,29.83
2022-11-10T03:31:29.571Z,29.17
2022-11-10T03:31:51.325Z,30.10
2022-11-10T03:32:13.269Z,30.63
2022-11-10T03:32:35.474Z,30.90
2022-11-10T03:32:57.669Z,30.95
2022-11-10T03:33:20.127Z,30.23
2022-11-10T03:33:42.122Z,30.65
2022-11-10T03:34:04.352Z,30.25
2022-11-10T03:34:29.397Z,30.25
2022-11-10T03:34:53.530Z,30.13
2022-11-10T03:35:15.676Z,30.75
2022-11-10T03:35:37.820Z,30.20
2022-11-10T03:35:59.644Z,29.52
2022-11-10T03:36:21.430Z,29.35
2022-11-10T03:36:43.529Z,30.15
2022-11-10T03:37:05.231Z,30.13
2022-11-10T03:37:26.978Z,30.05
2022-11-10T03:37:48.715Z,30.33
2022-11-10T03:38:10.907Z,30.25
2022-11-10T03:38:33.077Z,30.92
2022-11-10T03:38:55.181Z,29.27
2022-11-10T03:39:17.364Z,29.48
2022-11-10T03:39:39.695Z,29.67
2022-11-10T03:40:01.494Z,30.27
2022-11-10T03:40:23.257Z,29.88
2022-11-10T03:41:17.079Z,30.02
2022-11-10T03:41:27.121Z,29.15
2022-11-10T03:41:48.832Z,29.85
2022-11-10T03:42:10.540Z,30.17
2022-11-10T03:42:32.352Z,30.10
2022-11-10T03:42:54.238Z,29.23
2022-11-10T03:43:15.930Z,30.42
2022-11-10T03:43:37.680Z,30.48
2022-11-10T03:43:59.512Z,30.10
2022-11-10T03:44:21.268Z,29.38
2022-11-10T03:44:43.402Z,29.08
2022-11-10T03:45:05.641Z,29.20
2022-11-10T03:45:27.467Z,29.17
2022-11-10T03:45:49.649Z,29.45
2022-11-10T03:46:11.398Z,30.05
2022-11-10T03:46:33.219Z,29.13
2022-11-10T03:46:54.968Z,28.90
2022-11-10T03:47:16.722Z,29.02
2022-11-10T03:47:38.760Z,29.50
2022-11-10T03:48:00.565Z,28.35
2022-11-10T03:48:22.820Z,28.58
2022-11-10T03:48:50.239Z,29.33
2022-11-10T03:49:14.058Z,29.52
2022-11-10T03:49:35.849Z,29.40
2022-11-10T03:49:57.550Z,29.13
2022-11-10T03:50:19.424Z,29.55
2022-11-10T03:50:42.195Z,29.27
2022-11-10T03:51:04.034Z,28.52
2022-11-10T03:51:25.813Z,29.30
2022-11-10T03:51:47.573Z,29.17
2022-11-10T03:52:09.732Z,29.65
2022-11-10T03:52:31.846Z,30.65
2022-11-10T03:52:53.643Z,30.48
2022-11-10T03:53:15.786Z,29.52
2022-11-10T03:53:37.520Z,31.27
2022-11-10T03:53:59.214Z,29.25
2022-11-10T03:54:20.955Z,29.92
2022-11-10T03:54:42.782Z,29.48
2022-11-10T03:55:05.048Z,30.45
2022-11-10T03:55:26.851Z,29.55
2022-11-10T03:55:49.045Z,29.20
2022-11-10T03:56:11.555Z,29.77
2022-11-10T03:56:33.297Z,29.42
2022-11-10T03:56:55.113Z,29.48
2022-11-10T03:57:16.874Z,29.45
2022-11-10T03:57:38.660Z,29.65
2022-11-10T03:58:04.463Z,29.38
2022-11-10T03:58:26.639Z,29.60
2022-11-10T03:58:48.794Z,29.27
2022-11-10T03:59:10.542Z,29.73
2022-11-10T03:59:32.776Z,30.02
2022-11-10T03:59:54.516Z,30.15
2022-11-10T04:00:16.450Z,29.45
2022-11-10T04:00:38.600Z,29.08
2022-11-10T04:01:00.755Z,29.45
2022-11-10T04:01:23.884Z,30.17
2022-11-10T04:01:46.170Z,31.13
2022-11-10T04:02:08.079Z,30.80
2022-11-10T04:02:30.211Z,30.90
2022-11-10T04:02:52.313Z,31.23
2022-11-10T04:03:14.691Z,29.73
2022-11-10T04:03:36.473Z,29.88
2022-11-10T04:03:58.215Z,29.67
2022-11-10T04:04:38.305Z,29.52
2022-11-10T04:05:19.264Z,30.55
2022-11-10T04:05:59.719Z,30.23
2022-11-10T04:06:40.278Z,31.15
2022-11-10T04:07:21.195Z,30.27
2022-11-10T04:08:01.564Z,29.73
2022-11-10T04:08:42.046Z,30.73
2022-11-10T04:09:05.881Z,30.98
2022-11-10T04:09:27.639Z,31.15
2022-11-10T04:09:49.440Z,30.20
2022-11-10T04:10:11.166Z,29.50
2022-11-10T04:10:36.320Z,30.80
2022-11-10T04:10:58.082Z,30.88
2022-11-10T04:11:38.735Z,30.88
2022-11-10T04:12:24.679Z,30.60
2022-11-10T04:13:06.153Z,30.90
2022-11-10T04:13:46.425Z,30.92
2022-11-10T04:14:26.368Z,31.02
2022-11-10T04:15:20.656Z,29.90
2022-11-10T04:15:42.402Z,30.95
2022-11-10T04:16:04.210Z,31.17
2022-11-10T04:16:25.925Z,30.40
2022-11-10T04:16:47.741Z,31.42
2022-11-10T04:17:09.706Z,31.77
2022-11-10T04:17:31.916Z,31.00
2022-11-10T04:17:54.074Z,31.27
2022-11-10T04:18:22.052Z,31.00
2022-11-10T04:18:43.774Z,31.73
2022-11-10T04:19:05.629Z,30.88
2022-11-10T04:19:27.434Z,30.48
2022-11-10T04:19:49.244Z,30.85
2022-11-10T04:20:11.360Z,31.25
2022-11-10T04:20:33.058Z,30.55
2022-11-10T04:20:57.322Z,30.42
2022-11-10T04:21:19.124Z,30.95
2022-11-10T04:21:41.081Z,31.85
2022-11-10T04:22:02.880Z,31.27
2022-11-10T04:22:43.523Z,31.58
2022-11-10T04:23:24.124Z,30.30
2022-11-10T04:23:46.060Z,30.70
2022-11-10T04:24:08.522Z,30.75
2022-11-10T04:24:30.337Z,31.20
2022-11-10T04:24:52.170Z,30.95
2022-11-10T04:25:13.984Z,30.98
2022-11-10T04:25:56.057Z,30.75
2022-11-10T04:26:29.823Z,32.10
2022-11-10T04:26:51.709Z,31.55
2022-11-10T04:27:13.480Z,30.95
2022-11-10T04:27:35.193Z,30.58
2022-11-10T04:27:57.311Z,31.27
2022-11-10T04:28:19.476Z,29.95
2022-11-10T04:28:41.901Z,30.40
2022-11-10T04:29:05.932Z,30.38
2022-11-10T04:29:28.026Z,31.42
2022-11-10T04:29:49.761Z,31.23
2022-11-10T04:30:12.009Z,31.88
2022-11-10T04:30:34.341Z,31.20
2022-11-10T04:30:56.443Z,31.00
2022-11-10T04:31:19.860Z,32.22
2022-11-10T04:31:42.411Z,31.80
2022-11-10T04:32:04.628Z,30.35
2022-11-10T04:32:26.801Z,30.42
2022-11-10T04:32:48.516Z,31.38
2022-11-10T04:33:10.625Z,31.38
2022-11-10T04:33:32.776Z,31.98
2022-11-10T04:33:55.309Z,31.38
2022-11-10T04:34:17.093Z,30.63
2022-11-10T04:34:38.836Z,31.30
2022-11-10T04:35:00.581Z,32.13
2022-11-10T04:35:22.456Z,30.83
2022-11-10T04:35:44.537Z,31.27
2022-11-10T04:36:07.566Z,30.55
2022-11-10T04:36:31.476Z,30.27
2022-11-10T04:36:53.215Z,31.00
2022-11-10T04:37:14.961Z,31.45
2022-11-10T04:37:37.123Z,32.38
2022-11-10T04:38:00.425Z,30.70
2022-11-10T04:38:22.205Z,31.98
2022-11-10T04:38:44.558Z,32.00
2022-11-10T04:39:07.098Z,32.03
2022-11-10T04:39:28.827Z,31.77
2022-11-10T04:39:50.592Z,30.67
2022-11-10T04:40:12.487Z,31.35
2022-11-10T04:40:34.267Z,31.20
2022-11-10T04:40:56.228Z,31.25
2022-11-10T04:41:18.735Z,30.35
2022-11-10T04:41:40.584Z,30.80
2022-11-10T04:42:03.077Z,31.10
2022-11-10T04:42:25.285Z,31.85
2022-11-10T04:42:47.420Z,32.20
2022-11-10T04:43:09.148Z,31.83
2022-11-10T04:43:31.154Z,31.48
2022-11-10T04:43:53.278Z,31.20
2022-11-10T04:44:15.078Z,31.00
2022-11-10T04:44:36.823Z,31.10
2022-11-10T04:44:58.580Z,31.60
2022-11-10T04:45:20.302Z,31.02
2022-11-10T04:45:43.264Z,31.52
2022-11-10T04:46:06.516Z,31.73
2022-11-10T04:46:39.789Z,32.08
2022-11-10T04:47:01.916Z,32.05
2022-11-10T04:47:23.668Z,33.10
2022-11-10T04:47:45.391Z,33.15
2022-11-10T04:48:07.648Z,33.17
2022-11-10T04:48:29.629Z,32.03
2022-11-10T04:48:51.913Z,31.92
2022-11-10T04:49:13.762Z,33.03
2022-11-10T04:49:35.595Z,33.25
2022-11-10T04:49:57.337Z,33.10
2022-11-10T04:50:19.123Z,33.05
2022-11-10T04:50:40.863Z,33.30
2022-11-10T04:51:06.942Z,32.42
2022-11-10T04:51:31.855Z,32.60
2022-11-10T04:51:53.728Z,32.97
2022-11-10T04:52:15.962Z,32.78
2022-11-10T04:52:38.087Z,33.10
2022-11-10T04:52:59.794Z,33.03
2022-11-10T04:53:22.872Z,33.20
2022-11-10T04:53:45.379Z,32.97
2022-11-10T04:54:08.068Z,33.20
2022-11-10T04:54:30.197Z,33.67
2022-11-10T04:54:51.909Z,33.85
2022-11-10T04:55:13.721Z,32.47
2022-11-10T04:55:39.224Z,33.47
2022-11-10T04:56:01.327Z,33.53
2022-11-10T04:56:24.871Z,33.55
2022-11-10T04:56:46.985Z,34.13
2022-11-10T04:57:08.714Z,33.80
2022-11-10T04:57:30.435Z,34.15
2022-11-10T04:57:52.158Z,33.75
2022-11-10T04:58:14.620Z,32.55
2022-11-10T04:58:36.449Z,33.20
2022-11-10T04:58:58.351Z,34.63
2022-11-10T04:59:20.223Z,34.22
2022-11-10T04:59:42.066Z,33.25